Metar z połowy godziny Komunikat METAR ze strony awiacja.imgw.pl Metar G30 EPSN METAR EPSN 170900Z 18007KT CAVOK 26/14 Q1016 RMK 261 047 0/0=